createdAt,value
2017-07-19T11:08:34.202Z,10628
2017-07-19T11:09:55.426Z,10172
2017-07-19T11:11:17.586Z,9800
2017-07-19T11:12:39.738Z,9448
2017-07-19T11:14:01.883Z,9332
2017-07-19T11:15:24.139Z,9192
2017-07-19T11:16:46.166Z,9068
2017-07-19T11:18:08.314Z,8976
2017-07-19T11:19:31.251Z,8972
2017-07-19T11:20:53.622Z,8968
2017-07-19T11:22:15.807Z,9056
2017-07-19T11:23:37.380Z,9168
2017-07-19T11:24:58.855Z,9260
2017-07-19T11:26:20.697Z,9268
2017-07-19T11:27:43.199Z,9324
2017-07-19T11:29:05.035Z,9380
2017-07-19T11:30:27.631Z,9412
2017-07-19T11:31:50.114Z,9344
2017-07-19T11:33:12.325Z,9280
2017-07-19T11:34:34.476Z,9148
2017-07-19T11:35:56.936Z,9080
2017-07-19T11:37:18.828Z,8976
2017-07-19T11:38:40.728Z,8884
2017-07-19T11:40:02.714Z,8720
2017-07-19T11:41:25.510Z,8568
2017-07-19T11:42:47.364Z,8488
2017-07-19T11:44:09.046Z,8428
2017-07-19T11:45:31.351Z,8388
2017-07-19T11:46:53.125Z,8280
2017-07-19T11:48:15.294Z,8228
2017-07-19T11:49:37.208Z,8192
2017-07-19T11:50:59.405Z,8180
2017-07-19T11:52:21.884Z,8096
2017-07-19T11:53:43.936Z,7960
2017-07-19T11:55:05.504Z,8008
2017-07-19T11:56:27.435Z,8140
2017-07-19T11:57:50.206Z,8196
2017-07-19T11:59:12.763Z,8140
2017-07-19T12:00:35.246Z,8060
2017-07-19T12:01:56.805Z,8196
2017-07-19T12:03:19.227Z,8284
2017-07-19T12:04:41.491Z,8340
2017-07-19T12:06:03.987Z,8552
2017-07-19T12:07:26.468Z,8604
2017-07-19T12:08:49.295Z,8684
2017-07-19T12:10:11.444Z,8980
2017-07-19T12:11:33.733Z,9316
2017-07-19T12:12:55.664Z,10000
2017-07-19T12:14:17.915Z,10644
2017-07-19T12:15:40.078Z,11316
2017-07-19T12:17:02.709Z,11848
2017-07-19T12:18:24.863Z,12504
2017-07-19T12:19:47.585Z,13104
2017-07-19T12:21:09.890Z,13688
2017-07-19T12:22:31.880Z,14312
2017-07-19T12:23:53.535Z,14660
2017-07-19T12:25:16.075Z,14892
2017-07-19T12:26:38.368Z,15092
2017-07-19T12:28:00.560Z,15344
2017-07-19T12:29:22.746Z,15400
2017-07-19T12:30:45.532Z,15376
2017-07-19T12:32:07.726Z,15400
2017-07-19T12:33:29.580Z,15392
2017-07-19T12:34:52.075Z,15272
2017-07-19T12:36:13.906Z,15580
2017-07-19T12:37:36.407Z,15784
2017-07-19T12:38:58.573Z,16004
2017-07-19T12:40:20.756Z,16324
2017-07-19T12:41:42.878Z,16928
2017-07-19T12:43:05.041Z,17312
2017-07-19T12:44:27.302Z,17760
2017-07-19T12:45:49.476Z,18048
2017-07-19T12:47:12.377Z,18144
2017-07-19T12:48:34.884Z,18400
2017-07-19T12:49:56.824Z,18464
2017-07-19T12:51:18.713Z,18784
2017-07-19T12:52:41.005Z,19232
2017-07-19T12:54:03.507Z,19840
2017-07-19T12:55:25.701Z,19904
2017-07-19T12:56:47.245Z,19392
2017-07-19T12:58:10.036Z,19168
2017-07-19T12:59:32.625Z,19424
2017-07-19T13:00:54.226Z,20224
2017-07-19T13:02:16.831Z,21088
2017-07-19T13:03:39.270Z,22112
2017-07-19T13:05:01.735Z,22752
2017-07-19T13:06:24.296Z,22912
2017-07-19T13:07:46.795Z,22272
2017-07-19T13:09:09.466Z,21088
2017-07-19T13:10:31.985Z,19840
2017-07-19T13:11:53.946Z,19456
2017-07-19T13:13:16.127Z,20128
2017-07-19T13:14:38.545Z,20768
2017-07-19T13:16:00.385Z,20416
2017-07-19T13:17:22.574Z,19744
2017-07-19T13:18:44.519Z,18624
2017-07-19T13:20:07.475Z,17600
2017-07-19T13:21:29.342Z,17088
2017-07-19T13:22:51.884Z,16928
2017-07-19T13:24:14.104Z,16992
2017-07-19T13:25:36.246Z,17312
2017-07-19T13:26:58.428Z,17440
2017-07-19T13:28:20.625Z,17536
2017-07-19T13:29:42.793Z,17280
2017-07-19T13:31:05.590Z,17024
2017-07-19T13:32:27.875Z,16768
2017-07-19T13:33:50.035Z,16304
2017-07-19T13:35:11.917Z,16832
2017-07-19T13:36:34.334Z,18336
2017-07-19T13:37:56.542Z,19584
2017-07-19T13:39:18.731Z,19552
2017-07-19T13:40:40.910Z,18784
2017-07-19T13:42:02.746Z,17344
2017-07-19T13:43:24.911Z,15908
2017-07-19T13:44:47.144Z,14728
2017-07-19T13:46:09.426Z,14252
2017-07-19T13:47:32.184Z,13844
2017-07-19T13:48:53.721Z,13576
2017-07-19T13:50:16.228Z,13364
2017-07-19T13:51:38.421Z,13188
2017-07-19T13:53:00.915Z,12960
2017-07-19T13:54:22.806Z,12772
2017-07-19T13:55:45.313Z,12580
2017-07-19T13:57:07.864Z,12488
2017-07-19T13:58:30.336Z,12432
2017-07-19T13:59:52.934Z,12212
2017-07-19T14:01:14.532Z,12032
2017-07-19T14:02:36.697Z,11796
2017-07-19T14:03:59.241Z,11624
2017-07-19T14:05:21.715Z,11296
2017-07-19T14:06:44.008Z,10884
2017-07-19T14:08:05.883Z,10744
2017-07-19T14:09:28.007Z,10628
2017-07-19T14:10:50.175Z,10496
2017-07-19T14:12:12.054Z,10360
2017-07-19T14:13:33.968Z,10148
2017-07-19T14:14:56.553Z,9916
2017-07-19T14:16:18.397Z,9544
2017-07-19T14:17:40.914Z,9352
2017-07-19T14:19:02.446Z,9132
2017-07-19T14:20:24.656Z,8716
2017-07-19T14:21:47.202Z,8280
2017-07-19T14:23:08.729Z,7880
2017-07-19T14:24:30.678Z,7564
2017-07-19T14:25:53.539Z,7480
2017-07-19T14:27:15.417Z,7552
2017-07-19T14:28:37.249Z,7668
2017-07-19T14:29:59.546Z,7820
2017-07-19T14:31:22.103Z,7984
2017-07-19T14:32:43.977Z,8320
2017-07-19T14:34:06.206Z,8688
2017-07-19T14:35:28.055Z,9120
2017-07-19T14:36:50.834Z,9532
2017-07-19T14:38:13.914Z,9956
2017-07-19T14:39:36.258Z,10292
2017-07-19T14:40:58.948Z,10596
2017-07-19T14:42:21.386Z,10720
2017-07-19T14:43:43.673Z,10848
2017-07-19T14:45:05.836Z,11008
2017-07-19T14:46:28.101Z,11188
2017-07-19T14:47:50.526Z,11448
2017-07-19T14:49:12.526Z,11724
2017-07-19T14:50:35.052Z,11924
2017-07-19T14:51:57.658Z,11900
2017-07-19T14:53:19.752Z,11948
2017-07-19T14:54:41.933Z,11900
2017-07-19T14:56:04.437Z,11804
2017-07-19T14:57:26.636Z,11732
2017-07-19T14:58:49.266Z,11644
2017-07-19T15:00:11.178Z,11568
2017-07-19T15:01:33.670Z,11508
2017-07-19T15:02:55.837Z,11444
2017-07-19T15:04:18.005Z,11480
2017-07-19T15:05:40.176Z,11488
2017-07-19T15:07:02.837Z,11488
2017-07-19T15:08:24.677Z,11392
2017-07-19T15:09:47.031Z,11040
2017-07-19T15:11:09.211Z,10564
2017-07-19T15:12:30.429Z,10332
2017-07-19T15:13:52.607Z,10132
2017-07-19T15:15:14.439Z,9936
2017-07-19T15:16:36.676Z,9556
2017-07-19T15:17:58.863Z,9108
2017-07-19T15:19:20.387Z,8820
2017-07-19T15:20:43.196Z,8668
2017-07-19T15:22:05.386Z,8612
2017-07-19T15:23:27.664Z,8608
2017-07-19T15:24:48.885Z,8692
2017-07-19T15:26:11.121Z,8832
2017-07-19T15:27:33.286Z,9164
2017-07-19T15:28:55.529Z,9584
2017-07-19T15:30:17.710Z,10028
2017-07-19T15:31:39.816Z,10456
2017-07-19T15:33:01.687Z,10728
2017-07-19T15:34:23.526Z,10784
2017-07-19T15:35:45.386Z,10792
2017-07-19T15:37:07.506Z,10736
2017-07-19T15:38:29.046Z,10568
2017-07-19T15:39:51.547Z,10312
2017-07-19T15:41:13.845Z,10088
2017-07-19T15:42:36.035Z,9808
2017-07-19T15:43:58.522Z,9728
2017-07-19T15:45:20.681Z,9652
2017-07-19T15:46:43.177Z,9516
2017-07-19T15:48:05.612Z,9440
2017-07-19T15:49:27.808Z,9420
2017-07-19T15:50:49.998Z,9352
2017-07-19T15:52:11.846Z,9212
2017-07-19T15:53:34.431Z,9076
2017-07-19T15:54:56.647Z,8908
2017-07-19T15:56:19.185Z,8748
2017-07-19T15:57:41.137Z,8596
2017-07-19T15:59:03.934Z,8352
2017-07-19T16:00:26.085Z,8016
2017-07-19T16:01:48.253Z,7696
2017-07-19T16:03:10.725Z,7468
2017-07-19T16:04:33.219Z,7244
2017-07-19T16:05:55.060Z,7116
2017-07-19T16:07:17.206Z,7120
2017-07-19T16:08:39.079Z,7288
2017-07-19T16:10:01.820Z,7680
2017-07-19T16:11:24.428Z,8200
2017-07-19T16:12:46.918Z,8772
2017-07-19T16:14:09.298Z,9308
2017-07-19T16:15:32.196Z,9892
2017-07-19T16:16:54.686Z,10524
2017-07-19T16:18:16.605Z,11160
2017-07-19T16:19:39.119Z,11824
2017-07-19T16:21:01.887Z,12456
2017-07-19T16:22:24.166Z,13032
2017-07-19T16:23:46.685Z,13128
2017-07-19T16:25:08.528Z,13476
2017-07-19T16:26:31.276Z,13836
2017-07-19T16:27:53.424Z,14224
2017-07-19T16:29:14.976Z,14636
2017-07-19T16:30:37.207Z,14440
2017-07-19T16:31:59.927Z,13612
2017-07-19T16:33:22.147Z,12708
2017-07-19T16:34:44.306Z,11836
2017-07-19T16:36:06.134Z,10996
2017-07-19T16:37:28.777Z,10200
2017-07-19T16:38:50.992Z,9412
2017-07-19T16:40:12.265Z,8652
2017-07-19T16:41:34.428Z,8000
2017-07-19T16:42:56.584Z,7644
2017-07-19T16:44:19.135Z,7584
2017-07-19T16:45:41.326Z,7696
2017-07-19T16:47:03.576Z,7884
2017-07-19T16:48:26.323Z,8096
2017-07-19T16:49:48.495Z,8252
2017-07-19T16:51:10.669Z,8352
2017-07-19T16:52:33.178Z,8384
2017-07-19T16:53:55.716Z,8312
2017-07-19T16:55:18.319Z,8144
2017-07-19T16:56:40.521Z,7872
2017-07-19T16:58:02.406Z,7504
2017-07-19T16:59:24.908Z,7032
2017-07-19T17:00:46.459Z,6508
2017-07-19T17:02:08.959Z,5940
2017-07-19T17:03:30.621Z,5372
2017-07-19T17:04:52.837Z,4820
2017-07-19T17:06:15.016Z,4292
2017-07-19T17:07:37.237Z,3784
2017-07-19T17:08:59.742Z,3320
2017-07-19T17:10:21.929Z,2904
2017-07-19T17:11:44.134Z,2540
2017-07-19T17:13:06.652Z,2224
2017-07-19T17:14:28.239Z,1952
2017-07-19T17:15:51.015Z,1716
2017-07-19T17:17:13.542Z,1532
2017-07-19T17:18:36.079Z,1376
2017-07-19T17:19:58.426Z,1256
2017-07-19T17:21:20.985Z,1152
2017-07-19T17:22:43.479Z,1072
2017-07-19T17:24:05.985Z,1012
2017-07-19T17:25:28.483Z,956
2017-07-19T17:26:50.891Z,900
2017-07-19T17:28:12.759Z,860
2017-07-19T17:29:34.624Z,820
2017-07-19T17:30:56.851Z,780
2017-07-19T17:32:19.323Z,744
2017-07-19T17:33:41.863Z,704
2017-07-19T17:35:03.489Z,680
2017-07-19T17:36:25.070Z,664
2017-07-19T17:37:47.689Z,644
2017-07-19T17:39:09.567Z,632
2017-07-19T17:40:32.176Z,624
2017-07-19T17:41:54.364Z,616
2017-07-19T17:43:17.238Z,592
2017-07-19T17:44:39.733Z,564
2017-07-19T17:46:01.917Z,528
2017-07-19T17:47:24.390Z,488
2017-07-19T17:48:47.685Z,444
2017-07-19T17:50:10.823Z,400
2017-07-19T17:51:33.674Z,364
2017-07-19T17:52:56.867Z,336
2017-07-19T17:54:19.865Z,316
2017-07-19T17:55:42.716Z,296
2017-07-19T17:57:05.360Z,280
2017-07-19T17:58:28.221Z,268
2017-07-19T17:59:51.403Z,256
2017-07-19T18:01:13.859Z,244
2017-07-19T18:02:36.754Z,232
2017-07-19T18:03:59.881Z,212
2017-07-19T18:05:22.995Z,192
2017-07-19T18:06:45.851Z,172
2017-07-19T18:08:08.883Z,164
2017-07-19T18:09:32.140Z,144
2017-07-19T18:10:55.115Z,104
2017-07-19T18:12:17.792Z,64
2017-07-19T18:13:40.596Z,36
2017-07-19T18:15:02.526Z,32
2017-07-19T18:16:25.960Z,44
2017-07-19T18:17:49.070Z,36
2017-07-19T18:19:11.148Z,40
2017-07-19T18:20:33.743Z,40
2017-07-19T18:21:56.626Z,32
2017-07-19T18:23:18.363Z,40
2017-07-19T18:24:41.026Z,52
2017-07-19T18:26:03.284Z,64
2017-07-19T18:27:26.102Z,64
2017-07-19T18:28:48.279Z,60
2017-07-19T18:30:10.496Z,60
2017-07-19T18:31:32.995Z,60
2017-07-19T18:32:55.488Z,60
2017-07-19T18:34:17.695Z,60
2017-07-19T18:35:40.265Z,60
2017-07-19T18:37:02.442Z,64
2017-07-19T18:38:25.295Z,60
2017-07-19T18:39:47.469Z,56
2017-07-19T18:41:09.333Z,56
2017-07-19T18:42:31.234Z,56
2017-07-19T18:43:54.003Z,56
2017-07-19T18:45:16.194Z,56
2017-07-19T18:46:38.389Z,60
2017-07-19T18:48:00.253Z,60
2017-07-19T18:49:22.743Z,60
2017-07-19T18:50:44.605Z,60
2017-07-19T18:52:06.794Z,64
2017-07-19T18:53:28.667Z,60
2017-07-19T18:54:51.170Z,60
2017-07-19T18:56:13.685Z,56
2017-07-19T18:57:35.955Z,52
2017-07-19T18:58:58.457Z,52
2017-07-19T19:00:21.436Z,52
2017-07-19T19:01:43.634Z,52
2017-07-19T19:03:06.252Z,48
2017-07-19T19:04:28.517Z,48
2017-07-19T19:05:51.124Z,48
2017-07-19T19:07:13.009Z,48
2017-07-19T19:08:35.652Z,48
2017-07-19T19:09:58.132Z,48
2017-07-19T19:11:20.617Z,44
2017-07-19T19:12:42.824Z,48
2017-07-19T19:14:05.061Z,44
2017-07-19T19:15:26.617Z,44
2017-07-19T19:16:49.103Z,44
2017-07-19T19:18:11.410Z,40
2017-07-19T19:19:33.684Z,40
2017-07-19T19:20:56.006Z,40
2017-07-19T19:22:17.894Z,40
2017-07-19T19:23:40.404Z,40
2017-07-19T19:25:02.683Z,36
2017-07-19T19:26:24.853Z,32
2017-07-19T19:27:47.625Z,36
2017-07-19T19:29:09.835Z,32
2017-07-19T19:30:32.116Z,32
2017-07-19T19:31:54.644Z,32
2017-07-19T19:33:16.827Z,28
2017-07-19T19:34:39.323Z,28
2017-07-19T19:36:01.525Z,28
2017-07-19T19:37:23.437Z,24
2017-07-19T19:38:46.249Z,28
2017-07-19T19:40:08.760Z,24
2017-07-19T19:41:31.037Z,20
2017-07-19T19:42:53.029Z,20
2017-07-19T19:44:15.235Z,20
2017-07-19T19:45:37.472Z,16
2017-07-19T19:46:59.719Z,16
2017-07-19T19:48:22.299Z,12
2017-07-19T19:49:44.483Z,12
2017-07-19T19:51:06.370Z,12
2017-07-19T19:52:28.997Z,12
2017-07-19T19:53:50.916Z,8
2017-07-19T19:55:13.725Z,8
2017-07-19T19:56:36.396Z,8
2017-07-19T19:57:58.576Z,4
2017-07-19T19:59:20.847Z,8
2017-07-19T20:00:43.646Z,4
2017-07-19T20:02:05.838Z,4
2017-07-19T20:03:28.046Z,4
2017-07-19T20:04:49.582Z,0
2017-07-19T20:06:11.726Z,4
2017-07-19T20:07:34.006Z,4
2017-07-19T20:08:56.186Z,4
2017-07-19T20:10:18.710Z,0
2017-07-19T20:11:41.491Z,0
2017-07-19T20:13:03.655Z,0
2017-07-19T20:14:25.935Z,0
2017-07-19T20:15:48.456Z,0
2017-07-19T20:17:11.276Z,0
2017-07-19T20:18:33.135Z,0
2017-07-19T20:19:55.687Z,0
2017-07-19T20:21:18.245Z,0
2017-07-19T20:22:41.036Z,0
2017-07-19T20:24:03.236Z,0
2017-07-19T20:25:25.487Z,0
2017-07-19T20:26:48.143Z,0
2017-07-19T20:28:10.885Z,0
2017-07-19T20:29:32.811Z,0
2017-07-19T20:30:55.293Z,0
2017-07-19T20:32:17.292Z,0
2017-07-19T20:33:39.435Z,0
2017-07-19T20:35:01.600Z,0
2017-07-19T20:36:24.106Z,0
2017-07-19T20:37:45.968Z,0
2017-07-19T20:39:08.828Z,0
2017-07-19T20:40:31.341Z,0
2017-07-19T20:41:53.837Z,0
2017-07-19T20:43:16.337Z,0
2017-07-19T20:44:38.882Z,0
2017-07-19T20:46:00.425Z,0
2017-07-19T20:47:22.699Z,0
2017-07-19T20:48:45.174Z,0
2017-07-19T20:50:07.770Z,0
2017-07-19T20:51:29.982Z,0
2017-07-19T20:52:52.155Z,0
2017-07-19T20:54:14.350Z,0
2017-07-19T20:55:37.259Z,0
2017-07-19T20:56:59.428Z,0
2017-07-19T20:58:21.597Z,0
2017-07-19T20:59:43.459Z,0
2017-07-19T21:01:05.931Z,0
2017-07-19T21:02:28.220Z,0
2017-07-19T21:03:50.416Z,0
2017-07-19T21:05:12.591Z,0
2017-07-19T21:06:35.067Z,0
2017-07-19T21:07:57.237Z,0
2017-07-19T21:09:19.527Z,0
2017-07-19T21:10:42.010Z,0
2017-07-19T21:12:04.730Z,0
2017-07-19T21:13:26.919Z,0
2017-07-19T21:14:48.766Z,0
2017-07-19T21:16:10.636Z,0
2017-07-19T21:17:32.422Z,0
2017-07-19T21:18:54.601Z,0
2017-07-19T21:20:17.180Z,0
2017-07-19T21:21:39.039Z,0
2017-07-19T21:23:01.792Z,0
2017-07-19T21:24:24.105Z,0
2017-07-19T21:25:45.955Z,0
2017-07-19T21:27:07.806Z,0
2017-07-19T21:28:30.194Z,0
2017-07-19T21:29:52.049Z,0
2017-07-19T21:31:14.180Z,0
2017-07-19T21:32:36.029Z,0
2017-07-19T21:33:58.885Z,0
2017-07-19T21:35:21.079Z,0
2017-07-19T21:36:43.037Z,0
2017-07-19T21:38:04.882Z,0
2017-07-19T21:39:27.874Z,0
2017-07-19T21:40:49.752Z,0
2017-07-19T21:42:12.241Z,0
2017-07-19T21:43:34.406Z,0
2017-07-19T21:44:57.279Z,0
2017-07-19T21:46:19.202Z,0
2017-07-19T21:47:41.359Z,0
2017-07-19T21:49:03.239Z,0
2017-07-19T21:50:26.010Z,0
2017-07-19T21:51:47.959Z,0
2017-07-19T21:53:10.189Z,0
2017-07-19T21:54:32.349Z,0
2017-07-19T21:55:54.772Z,0
2017-07-19T21:57:16.938Z,0
2017-07-19T21:58:39.231Z,0
2017-07-19T22:00:01.730Z,0
2017-07-19T22:01:24.306Z,0
2017-07-19T22:02:46.449Z,0
2017-07-19T22:04:08.921Z,0
2017-07-19T22:05:31.421Z,0
2017-07-19T22:06:53.887Z,0
2017-07-19T22:08:15.484Z,0
2017-07-19T22:09:37.647Z,0
2017-07-19T22:10:59.484Z,0
2017-07-19T22:12:21.625Z,0
2017-07-19T22:13:43.481Z,0
2017-07-19T22:15:05.698Z,0
2017-07-19T22:16:27.869Z,0
2017-07-19T22:17:50.276Z,0
2017-07-19T22:19:11.888Z,0
2017-07-19T22:20:34.067Z,0
2017-07-19T22:21:55.619Z,0
2017-07-19T22:23:18.448Z,0
2017-07-19T22:24:40.286Z,0
2017-07-19T22:26:02.524Z,0
2017-07-19T22:27:24.399Z,0
2017-07-19T22:28:46.497Z,0
2017-07-19T22:30:07.728Z,0
2017-07-19T22:31:29.318Z,0
2017-07-19T22:32:50.867Z,0
2017-07-19T22:34:12.976Z,0
2017-07-19T22:35:34.200Z,0
2017-07-19T22:36:56.391Z,0
2017-07-19T22:38:18.897Z,0
2017-07-19T22:39:40.733Z,0
2017-07-19T22:41:03.229Z,0
2017-07-19T22:42:25.398Z,0
2017-07-19T22:43:47.001Z,0
2017-07-19T22:45:09.525Z,0
2017-07-19T22:46:31.485Z,0
2017-07-19T22:47:53.348Z,0
2017-07-19T22:49:15.237Z,0
2017-07-19T22:50:37.849Z,0
2017-07-19T22:52:00.040Z,0
2017-07-19T22:53:21.886Z,0
2017-07-19T22:54:43.568Z,0
2017-07-19T22:56:05.764Z,0
2017-07-19T22:57:27.720Z,0
2017-07-19T22:58:49.975Z,0
2017-07-19T23:00:11.499Z,0
2017-07-19T23:01:34.277Z,0
2017-07-19T23:02:56.117Z,0
2017-07-19T23:04:18.282Z,0
2017-07-19T23:05:40.782Z,0
2017-07-19T23:07:02.986Z,0
2017-07-19T23:08:25.180Z,0
2017-07-19T23:09:47.155Z,0
2017-07-19T23:11:09.306Z,0
2017-07-19T23:12:31.075Z,0
2017-07-19T23:13:53.697Z,0
2017-07-19T23:15:16.217Z,0
2017-07-19T23:16:38.374Z,0
2017-07-19T23:18:01.067Z,0
2017-07-19T23:19:22.931Z,0
2017-07-19T23:20:44.836Z,0
2017-07-19T23:22:06.990Z,0
2017-07-19T23:23:29.447Z,0
2017-07-19T23:24:51.939Z,0
2017-07-19T23:26:14.450Z,0
2017-07-19T23:27:36.497Z,0
2017-07-19T23:28:59.056Z,0
2017-07-19T23:30:20.586Z,0
2017-07-19T23:31:41.829Z,0
2017-07-19T23:33:04.299Z,0
2017-07-19T23:34:26.764Z,0
2017-07-19T23:35:48.268Z,0
2017-07-19T23:37:10.105Z,0
2017-07-19T23:38:31.647Z,0
2017-07-19T23:39:54.185Z,0
2017-07-19T23:41:16.027Z,0
2017-07-19T23:42:37.669Z,0
2017-07-19T23:43:59.178Z,0
2017-07-19T23:45:20.958Z,0
2017-07-19T23:46:43.454Z,0
2017-07-19T23:48:05.630Z,0
2017-07-19T23:49:27.617Z,0
2017-07-19T23:50:49.706Z,0
2017-07-19T23:52:11.548Z,0
2017-07-19T23:53:33.485Z,0
2017-07-19T23:54:55.706Z,0
2017-07-19T23:56:18.538Z,0
2017-07-19T23:57:40.698Z,0
2017-07-19T23:59:02.857Z,0
